KCPC

Details ICAO KCPC
Name COLUMBUS CO MUNI
Region United States
Timezone America/New_York (UTC-5.0)
Plans Departing 2
Arriving 3
Stats Elevation 98 ft / 30 m (AMSL)
Location 34.272872° -78.714990°
Runways 1
Magnetic Variation 8.946° W
Sunrise 2017-12-17 12:16:22 UTC / 2017-12-17 07:16:22 Local
Sunset 2017-12-17 22:08:32 UTC / 2017-12-17 17:08:32 Local
Advertisement - Login to hide

Runways

ID Width Length Bearing (true) Bearing (mag) Surface Threshold Offset Overrun Length
06 75 ft / 23 m 5,504 ft / 1,677 m 41.98° 50.93° Asphalt 0 ft / 0 m 0 ft / 0 m
24 75 ft / 23 m 5,504 ft / 1,677 m 221.99° 230.94° Asphalt 0 ft / 0 m 0 ft / 0 m

Map

Weather


0- 5 10 15 20 25 30 35+ Temperature / ° C

Clouds and Precipitation
Forecast for 2017-12-18 00:00 UTC. Updated 25 minutes ago

Ground ~20,000 ft ~40,000 ft Winds

METAR

KCPC 172125Z AUTO 22003KT 10SM CLR 15/04 A3021 RMK AO2 T01500035

TAF

Not found

Frequencies

Recorded 118.37 MHz AWOS 3
Approach 119.20 MHz MYRTLE BEACH APP/DEP
Unicom 122.80 MHz CTAF/UNICOM
Warning: Do not use this data for real-world aviation or navigation. No guarantee of current accuracy is given.